sensor_id;sensor_type;location;lat;lon;timestamp;temperature;humidity
5779;DHT22;2916;49.798;10.022;2023-09-12T00:01:08;18.40;1.00
5779;DHT22;2916;49.798;10.022;2023-09-12T00:03:35;18.30;1.00
5779;DHT22;2916;49.798;10.022;2023-09-12T00:06:04;18.30;1.00
5779;DHT22;2916;49.798;10.022;2023-09-12T00:08:31;18.30;1.00
5779;DHT22;2916;49.798;10.022;2023-09-12T00:11:00;18.30;1.00
5779;DHT22;2916;49.798;10.022;2023-09-12T00:13:29;18.20;1.00
5779;DHT22;2916;49.798;10.022;2023-09-12T00:15:56;18.20;1.00
5779;DHT22;2916;49.798;10.022;2023-09-12T00:18:24;18.20;1.00
5779;DHT22;2916;49.798;10.022;2023-09-12T00:20:51;18.10;1.00
5779;DHT22;2916;49.798;10.022;2023-09-12T00:23:21;18.10;1.00
5779;DHT22;2916;49.798;10.022;2023-09-12T00:25:49;18.10;1.00
5779;DHT22;2916;49.798;10.022;2023-09-12T00:28:17;18.10;1.00
5779;DHT22;2916;49.798;10.022;2023-09-12T00:30:44;18.00;1.00
5779;DHT22;2916;49.798;10.022;2023-09-12T00:33:11;18.00;1.00
5779;DHT22;2916;49.798;10.022;2023-09-12T00:35:38;17.90;1.00
5779;DHT22;2916;49.798;10.022;2023-09-12T00:38:06;17.90;1.50
5779;DHT22;2916;49.798;10.022;2023-09-12T00:40:34;17.90;1.00
5779;DHT22;2916;49.798;10.022;2023-09-12T00:43:03;18.00;1.00
5779;DHT22;2916;49.798;10.022;2023-09-12T00:45:30;17.90;1.00
5779;DHT22;2916;49.798;10.022;2023-09-12T00:47:58;17.90;1.00
5779;DHT22;2916;49.798;10.022;2023-09-12T00:50:30;17.90;1.00
5779;DHT22;2916;49.798;10.022;2023-09-12T00:52:58;17.90;1.00
5779;DHT22;2916;49.798;10.022;2023-09-12T00:55:26;17.90;1.00
5779;DHT22;2916;49.798;10.022;2023-09-12T00:57:55;17.90;1.00
5779;DHT22;2916;49.798;10.022;2023-09-12T01:00:23;17.90;1.00
5779;DHT22;2916;49.798;10.022;2023-09-12T01:02:51;17.80;1.00
5779;DHT22;2916;49.798;10.022;2023-09-12T01:05:19;17.80;1.00
5779;DHT22;2916;49.798;10.022;2023-09-12T01:07:48;17.70;1.00
5779;DHT22;2916;49.798;10.022;2023-09-12T01:10:16;17.70;1.00
5779;DHT22;2916;49.798;10.022;2023-09-12T01:12:43;17.70;1.00
5779;DHT22;2916;49.798;10.022;2023-09-12T01:15:12;17.70;1.00
5779;DHT22;2916;49.798;10.022;2023-09-12T01:17:41;17.60;1.00
5779;DHT22;2916;49.798;10.022;2023-09-12T01:20:14;17.50;1.30
5779;DHT22;2916;49.798;10.022;2023-09-12T01:22:55;17.60;1.00
5779;DHT22;2916;49.798;10.022;2023-09-12T01:25:59;17.50;2.20
5779;DHT22;2916;49.798;10.022;2023-09-12T01:28:34;17.50;4.10
5779;DHT22;2916;49.798;10.022;2023-09-12T01:31:08;17.50;9.00
5779;DHT22;2916;49.798;10.022;2023-09-12T01:33:36;17.50;12.10
5779;DHT22;2916;49.798;10.022;2023-09-12T01:36:03;17.50;11.00
5779;DHT22;2916;49.798;10.022;2023-09-12T01:38:31;17.50;9.70
5779;DHT22;2916;49.798;10.022;2023-09-12T01:40:58;17.50;9.60
5779;DHT22;2916;49.798;10.022;2023-09-12T01:43:26;17.50;9.10
5779;DHT22;2916;49.798;10.022;2023-09-12T01:45:59;17.40;9.50
5779;DHT22;2916;49.798;10.022;2023-09-12T01:48:35;17.40;8.60
5779;DHT22;2916;49.798;10.022;2023-09-12T01:51:04;17.30;8.80
5779;DHT22;2916;49.798;10.022;2023-09-12T01:53:33;17.30;8.80
5779;DHT22;2916;49.798;10.022;2023-09-12T01:56:03;17.40;9.90
5779;DHT22;2916;49.798;10.022;2023-09-12T01:58:30;17.20;10.50
5779;DHT22;2916;49.798;10.022;2023-09-12T02:00:59;17.20;12.60
5779;DHT22;2916;49.798;10.022;2023-09-12T02:03:26;17.10;16.00
5779;DHT22;2916;49.798;10.022;2023-09-12T02:05:54;17.00;14.40
5779;DHT22;2916;49.798;10.022;2023-09-12T02:08:21;17.10;19.30
5779;DHT22;2916;49.798;10.022;2023-09-12T02:10:48;17.10;18.00
5779;DHT22;2916;49.798;10.022;2023-09-12T02:13:15;17.00;20.60
5779;DHT22;2916;49.798;10.022;2023-09-12T02:15:42;17.00;19.40
5779;DHT22;2916;49.798;10.022;2023-09-12T02:18:10;17.00;18.80
5779;DHT22;2916;49.798;10.022;2023-09-12T02:20:38;17.00;20.40
5779;DHT22;2916;49.798;10.022;2023-09-12T02:23:07;17.00;25.40
5779;DHT22;2916;49.798;10.022;2023-09-12T02:25:34;17.00;27.90
5779;DHT22;2916;49.798;10.022;2023-09-12T02:28:01;17.00;25.40
5779;DHT22;2916;49.798;10.022;2023-09-12T02:30:28;17.00;25.60
5779;DHT22;2916;49.798;10.022;2023-09-12T02:32:55;17.00;25.20
5779;DHT22;2916;49.798;10.022;2023-09-12T02:35:24;17.00;20.70
5779;DHT22;2916;49.798;10.022;2023-09-12T02:37:51;17.00;26.70
5779;DHT22;2916;49.798;10.022;2023-09-12T02:40:18;17.00;31.60
5779;DHT22;2916;49.798;10.022;2023-09-12T02:42:45;16.90;24.30
5779;DHT22;2916;49.798;10.022;2023-09-12T02:45:12;16.90;27.40
5779;DHT22;2916;49.798;10.022;2023-09-12T02:47:39;16.80;33.80
5779;DHT22;2916;49.798;10.022;2023-09-12T02:50:09;16.70;37.50
5779;DHT22;2916;49.798;10.022;2023-09-12T02:52:37;16.60;39.10
5779;DHT22;2916;49.798;10.022;2023-09-12T02:55:05;16.60;36.80
5779;DHT22;2916;49.798;10.022;2023-09-12T02:57:33;16.60;41.30
5779;DHT22;2916;49.798;10.022;2023-09-12T03:00:00;16.50;48.50
5779;DHT22;2916;49.798;10.022;2023-09-12T03:02:27;16.50;49.60
5779;DHT22;2916;49.798;10.022;2023-09-12T03:04:54;16.50;47.80
5779;DHT22;2916;49.798;10.022;2023-09-12T03:07:22;16.60;49.40
5779;DHT22;2916;49.798;10.022;2023-09-12T03:09:50;16.60;55.00
5779;DHT22;2916;49.798;10.022;2023-09-12T03:12:17;16.60;45.70
5779;DHT22;2916;49.798;10.022;2023-09-12T03:14:44;16.50;41.70
5779;DHT22;2916;49.798;10.022;2023-09-12T03:17:11;16.60;49.40
5779;DHT22;2916;49.798;10.022;2023-09-12T03:19:38;16.50;41.70
5779;DHT22;2916;49.798;10.022;2023-09-12T03:22:05;16.60;47.70
5779;DHT22;2916;49.798;10.022;2023-09-12T03:24:32;16.60;56.40
5779;DHT22;2916;49.798;10.022;2023-09-12T03:27:01;16.60;53.40
5779;DHT22;2916;49.798;10.022;2023-09-12T03:29:28;16.50;47.80
5779;DHT22;2916;49.798;10.022;2023-09-12T03:31:55;16.50;43.40
5779;DHT22;2916;49.798;10.022;2023-09-12T03:34:22;16.50;48.10
5779;DHT22;2916;49.798;10.022;2023-09-12T03:36:49;16.40;42.20
5779;DHT22;2916;49.798;10.022;2023-09-12T03:39:16;16.40;37.70
5779;DHT22;2916;49.798;10.022;2023-09-12T03:41:43;16.30;36.90
5779;DHT22;2916;49.798;10.022;2023-09-12T03:44:11;16.20;37.80
5779;DHT22;2916;49.798;10.022;2023-09-12T03:46:39;16.20;43.50
5779;DHT22;2916;49.798;10.022;2023-09-12T03:49:06;16.20;41.60
5779;DHT22;2916;49.798;10.022;2023-09-12T03:51:33;16.10;42.60
5779;DHT22;2916;49.798;10.022;2023-09-12T03:54:03;16.10;49.30
5779;DHT22;2916;49.798;10.022;2023-09-12T03:56:30;16.00;58.20
5779;DHT22;2916;49.798;10.022;2023-09-12T03:58:57;16.10;60.90
5779;DHT22;2916;49.798;10.022;2023-09-12T04:01:26;16.10;59.30
5779;DHT22;2916;49.798;10.022;2023-09-12T04:03:54;16.10;60.50
5779;DHT22;2916;49.798;10.022;2023-09-12T04:06:21;16.10;57.60
5779;DHT22;2916;49.798;10.022;2023-09-12T04:08:48;16.10;53.50
5779;DHT22;2916;49.798;10.022;2023-09-12T04:11:16;16.10;48.90
5779;DHT22;2916;49.798;10.022;2023-09-12T04:13:43;16.10;54.50
5779;DHT22;2916;49.798;10.022;2023-09-12T04:16:10;16.10;51.10
5779;DHT22;2916;49.798;10.022;2023-09-12T04:18:38;16.00;51.70
5779;DHT22;2916;49.798;10.022;2023-09-12T04:21:05;15.90;48.70
5779;DHT22;2916;49.798;10.022;2023-09-12T04:23:33;15.90;48.70
5779;DHT22;2916;49.798;10.022;2023-09-12T04:26:00;15.90;51.60
5779;DHT22;2916;49.798;10.022;2023-09-12T04:28:28;15.90;52.90
5779;DHT22;2916;49.798;10.022;2023-09-12T04:31:03;16.00;60.80
5779;DHT22;2916;49.798;10.022;2023-09-12T04:33:30;16.00;61.90
5779;DHT22;2916;49.798;10.022;2023-09-12T04:36:01;15.90;61.80
5779;DHT22;2916;49.798;10.022;2023-09-12T04:38:29;16.00;77.60
5779;DHT22;2916;49.798;10.022;2023-09-12T04:40:56;16.10;99.90
5779;DHT22;2916;49.798;10.022;2023-09-12T04:43:28;16.00;98.50
5779;DHT22;2916;49.798;10.022;2023-09-12T04:45:55;16.00;97.70
5779;DHT22;2916;49.798;10.022;2023-09-12T04:48:22;16.00;99.90
5779;DHT22;2916;49.798;10.022;2023-09-12T04:50:50;16.10;99.90
5779;DHT22;2916;49.798;10.022;2023-09-12T04:53:18;16.10;99.90
5779;DHT22;2916;49.798;10.022;2023-09-12T04:55:46;16.10;99.90
5779;DHT22;2916;49.798;10.022;2023-09-12T04:58:13;16.10;99.90
5779;DHT22;2916;49.798;10.022;2023-09-12T05:00:40;16.00;99.90
5779;DHT22;2916;49.798;10.022;2023-09-12T05:03:07;16.00;99.90
5779;DHT22;2916;49.798;10.022;2023-09-12T05:05:34;16.00;99.90
5779;DHT22;2916;49.798;10.022;2023-09-12T05:08:03;16.00;99.90
5779;DHT22;2916;49.798;10.022;2023-09-12T05:10:31;16.00;99.90
5779;DHT22;2916;49.798;10.022;2023-09-12T05:12:58;16.10;99.90
5779;DHT22;2916;49.798;10.022;2023-09-12T05:15:25;16.20;99.90
5779;DHT22;2916;49.798;10.022;2023-09-12T05:17:52;16.30;99.90
5779;DHT22;2916;49.798;10.022;2023-09-12T05:20:19;16.30;99.90
5779;DHT22;2916;49.798;10.022;2023-09-12T05:22:47;16.20;99.90
5779;DHT22;2916;49.798;10.022;2023-09-12T05:25:14;16.20;99.90
5779;DHT22;2916;49.798;10.022;2023-09-12T05:27:42;16.30;99.90
5779;DHT22;2916;49.798;10.022;2023-09-12T05:30:10;16.40;99.90
5779;DHT22;2916;49.798;10.022;2023-09-12T05:32:37;16.50;99.90
5779;DHT22;2916;49.798;10.022;2023-09-12T05:35:05;16.50;99.90
5779;DHT22;2916;49.798;10.022;2023-09-12T05:37:32;16.40;99.90
5779;DHT22;2916;49.798;10.022;2023-09-12T05:39:59;16.50;99.90
5779;DHT22;2916;49.798;10.022;2023-09-12T05:42:27;16.60;99.90
5779;DHT22;2916;49.798;10.022;2023-09-12T05:44:55;16.70;99.90
5779;DHT22;2916;49.798;10.022;2023-09-12T05:47:22;17.00;99.90
5779;DHT22;2916;49.798;10.022;2023-09-12T05:49:50;17.10;99.90
5779;DHT22;2916;49.798;10.022;2023-09-12T05:52:17;17.10;99.90
5779;DHT22;2916;49.798;10.022;2023-09-12T05:54:44;17.40;99.90
5779;DHT22;2916;49.798;10.022;2023-09-12T05:57:11;17.40;99.90
5779;DHT22;2916;49.798;10.022;2023-09-12T05:59:39;17.50;99.90
5779;DHT22;2916;49.798;10.022;2023-09-12T06:02:07;17.60;99.90
5779;DHT22;2916;49.798;10.022;2023-09-12T06:04:35;17.80;99.90
5779;DHT22;2916;49.798;10.022;2023-09-12T06:07:02;17.90;99.90
5779;DHT22;2916;49.798;10.022;2023-09-12T06:09:30;18.10;99.70
5779;DHT22;2916;49.798;10.022;2023-09-12T06:11:57;18.30;94.20
5779;DHT22;2916;49.798;10.022;2023-09-12T06:14:24;18.60;86.60
5779;DHT22;2916;49.798;10.022;2023-09-12T06:16:51;18.90;69.90
5779;DHT22;2916;49.798;10.022;2023-09-12T06:19:20;19.20;61.60
5779;DHT22;2916;49.798;10.022;2023-09-12T06:21:47;19.40;50.80
5779;DHT22;2916;49.798;10.022;2023-09-12T06:24:16;19.60;47.10
5779;DHT22;2916;49.798;10.022;2023-09-12T06:26:43;19.80;39.20
5779;DHT22;2916;49.798;10.022;2023-09-12T06:29:11;20.00;36.10
5779;DHT22;2916;49.798;10.022;2023-09-12T06:31:38;19.70;28.20
5779;DHT22;2916;49.798;10.022;2023-09-12T06:34:06;19.50;33.80
5779;DHT22;2916;49.798;10.022;2023-09-12T06:36:35;19.60;34.20
5779;DHT22;2916;49.798;10.022;2023-09-12T06:39:03;20.00;28.50
5779;DHT22;2916;49.798;10.022;2023-09-12T06:41:30;20.20;24.60
5779;DHT22;2916;49.798;10.022;2023-09-12T06:43:58;20.60;22.30
5779;DHT22;2916;49.798;10.022;2023-09-12T06:46:26;21.10;12.20
5779;DHT22;2916;49.798;10.022;2023-09-12T06:48:53;21.40;2.80
5779;DHT22;2916;49.798;10.022;2023-09-12T06:51:24;21.80;1.50
5779;DHT22;2916;49.798;10.022;2023-09-12T06:53:53;22.30;1.00
5779;DHT22;2916;49.798;10.022;2023-09-12T06:56:20;22.50;1.00
5779;DHT22;2916;49.798;10.022;2023-09-12T06:58:47;23.00;1.00
5779;DHT22;2916;49.798;10.022;2023-09-12T07:01:14;23.40;1.00
5779;DHT22;2916;49.798;10.022;2023-09-12T07:03:41;23.80;1.00
5779;DHT22;2916;49.798;10.022;2023-09-12T07:06:08;24.30;1.00
5779;DHT22;2916;49.798;10.022;2023-09-12T07:08:36;24.50;1.00
5779;DHT22;2916;49.798;10.022;2023-09-12T07:11:05;24.80;1.00
5779;DHT22;2916;49.798;10.022;2023-09-12T07:13:32;23.60;1.00
5779;DHT22;2916;49.798;10.022;2023-09-12T07:16:00;23.60;1.00
5779;DHT22;2916;49.798;10.022;2023-09-12T07:18:29;23.70;1.00
5779;DHT22;2916;49.798;10.022;2023-09-12T07:20:58;23.70;1.00
5779;DHT22;2916;49.798;10.022;2023-09-12T07:23:26;23.50;1.00
5779;DHT22;2916;49.798;10.022;2023-09-12T07:25:54;23.50;1.00
5779;DHT22;2916;49.798;10.022;2023-09-12T07:28:24;23.70;1.00
5779;DHT22;2916;49.798;10.022;2023-09-12T07:30:51;23.60;1.00
5779;DHT22;2916;49.798;10.022;2023-09-12T07:33:19;23.60;1.00
5779;DHT22;2916;49.798;10.022;2023-09-12T07:35:47;22.90;1.00
5779;DHT22;2916;49.798;10.022;2023-09-12T07:38:14;22.50;1.00
5779;DHT22;2916;49.798;10.022;2023-09-12T07:40:41;22.30;1.00
5779;DHT22;2916;49.798;10.022;2023-09-12T07:43:09;22.70;1.00
5779;DHT22;2916;49.798;10.022;2023-09-12T07:45:37;23.20;1.00
5779;DHT22;2916;49.798;10.022;2023-09-12T07:48:07;23.20;1.00
5779;DHT22;2916;49.798;10.022;2023-09-12T07:50:35;23.60;1.00
5779;DHT22;2916;49.798;10.022;2023-09-12T07:53:04;23.70;1.00
5779;DHT22;2916;49.798;10.022;2023-09-12T07:55:31;23.80;1.00
5779;DHT22;2916;49.798;10.022;2023-09-12T07:58:01;24.20;1.00
5779;DHT22;2916;49.798;10.022;2023-09-12T08:00:29;25.00;1.00
5779;DHT22;2916;49.798;10.022;2023-09-12T08:02:57;25.60;1.00
5779;DHT22;2916;49.798;10.022;2023-09-12T08:05:24;25.90;1.00
5779;DHT22;2916;49.798;10.022;2023-09-12T08:07:51;26.30;1.00
5779;DHT22;2916;49.798;10.022;2023-09-12T08:10:18;26.10;1.00
5779;DHT22;2916;49.798;10.022;2023-09-12T08:12:45;25.50;1.00
5779;DHT22;2916;49.798;10.022;2023-09-12T08:15:12;26.50;1.00
5779;DHT22;2916;49.798;10.022;2023-09-12T08:17:39;27.10;1.00
5779;DHT22;2916;49.798;10.022;2023-09-12T08:20:09;27.80;1.00
5779;DHT22;2916;49.798;10.022;2023-09-12T08:22:36;27.70;1.00
5779;DHT22;2916;49.798;10.022;2023-09-12T08:25:05;28.10;1.00
5779;DHT22;2916;49.798;10.022;2023-09-12T08:27:33;28.50;1.00
5779;DHT22;2916;49.798;10.022;2023-09-12T08:30:00;28.50;1.00
5779;DHT22;2916;49.798;10.022;2023-09-12T08:32:27;28.20;1.00
5779;DHT22;2916;49.798;10.022;2023-09-12T08:34:54;28.30;1.00
5779;DHT22;2916;49.798;10.022;2023-09-12T08:37:22;28.10;1.00
5779;DHT22;2916;49.798;10.022;2023-09-12T08:39:49;28.30;1.00
5779;DHT22;2916;49.798;10.022;2023-09-12T08:42:22;28.60;1.00
5779;DHT22;2916;49.798;10.022;2023-09-12T08:44:52;28.20;1.00
5779;DHT22;2916;49.798;10.022;2023-09-12T08:47:22;28.50;1.00
5779;DHT22;2916;49.798;10.022;2023-09-12T08:49:50;28.40;1.00
5779;DHT22;2916;49.798;10.022;2023-09-12T08:52:17;27.90;1.00
5779;DHT22;2916;49.798;10.022;2023-09-12T08:54:45;27.90;1.00
5779;DHT22;2916;49.798;10.022;2023-09-12T08:57:13;27.60;1.00
5779;DHT22;2916;49.798;10.022;2023-09-12T08:59:43;28.30;1.00
5779;DHT22;2916;49.798;10.022;2023-09-12T09:02:13;28.30;1.00
5779;DHT22;2916;49.798;10.022;2023-09-12T09:04:42;28.40;1.00
5779;DHT22;2916;49.798;10.022;2023-09-12T09:07:14;28.80;1.00
5779;DHT22;2916;49.798;10.022;2023-09-12T09:09:41;28.70;1.00
5779;DHT22;2916;49.798;10.022;2023-09-12T09:12:10;28.40;1.00
5779;DHT22;2916;49.798;10.022;2023-09-12T09:14:37;27.90;1.00
5779;DHT22;2916;49.798;10.022;2023-09-12T09:17:04;28.20;1.00
5779;DHT22;2916;49.798;10.022;2023-09-12T09:19:40;28.10;1.00
5779;DHT22;2916;49.798;10.022;2023-09-12T09:22:08;28.40;1.00
5779;DHT22;2916;49.798;10.022;2023-09-12T09:24:35;28.00;1.00
5779;DHT22;2916;49.798;10.022;2023-09-12T09:27:03;28.10;1.00
5779;DHT22;2916;49.798;10.022;2023-09-12T09:29:31;28.80;1.00
5779;DHT22;2916;49.798;10.022;2023-09-12T09:32:17;28.30;1.00
5779;DHT22;2916;49.798;10.022;2023-09-12T09:34:47;29.00;1.00
5779;DHT22;2916;49.798;10.022;2023-09-12T09:37:14;28.40;1.00
5779;DHT22;2916;49.798;10.022;2023-09-12T09:39:45;28.70;1.00
5779;DHT22;2916;49.798;10.022;2023-09-12T09:42:17;28.70;1.00
5779;DHT22;2916;49.798;10.022;2023-09-12T09:44:47;29.10;1.00
5779;DHT22;2916;49.798;10.022;2023-09-12T09:47:15;28.50;1.00
5779;DHT22;2916;49.798;10.022;2023-09-12T09:49:45;28.70;1.00
5779;DHT22;2916;49.798;10.022;2023-09-12T09:52:13;28.60;1.00
5779;DHT22;2916;49.798;10.022;2023-09-12T09:54:43;28.60;1.00
5779;DHT22;2916;49.798;10.022;2023-09-12T09:57:11;28.70;1.00
5779;DHT22;2916;49.798;10.022;2023-09-12T09:59:38;29.20;1.00
5779;DHT22;2916;49.798;10.022;2023-09-12T10:02:16;29.50;1.00
5779;DHT22;2916;49.798;10.022;2023-09-12T10:04:47;29.80;1.00
5779;DHT22;2916;49.798;10.022;2023-09-12T10:07:16;30.00;1.00
5779;DHT22;2916;49.798;10.022;2023-09-12T10:09:44;30.20;1.00
5779;DHT22;2916;49.798;10.022;2023-09-12T10:12:12;30.50;1.00
5779;DHT22;2916;49.798;10.022;2023-09-12T10:14:40;30.80;1.00
5779;DHT22;2916;49.798;10.022;2023-09-12T10:17:12;31.00;1.00
5779;DHT22;2916;49.798;10.022;2023-09-12T10:19:46;30.40;1.00
5779;DHT22;2916;49.798;10.022;2023-09-12T10:22:21;30.50;1.00
5779;DHT22;2916;49.798;10.022;2023-09-12T10:24:52;30.80;1.00
5779;DHT22;2916;49.798;10.022;2023-09-12T10:27:24;31.40;1.00
5779;DHT22;2916;49.798;10.022;2023-09-12T10:29:52;31.20;1.00
5779;DHT22;2916;49.798;10.022;2023-09-12T10:32:21;31.10;1.00
5779;DHT22;2916;49.798;10.022;2023-09-12T10:34:51;31.40;1.00
5779;DHT22;2916;49.798;10.022;2023-09-12T10:37:22;30.70;1.00
5779;DHT22;2916;49.798;10.022;2023-09-12T10:39:53;30.80;1.00
5779;DHT22;2916;49.798;10.022;2023-09-12T10:42:20;30.90;1.00
5779;DHT22;2916;49.798;10.022;2023-09-12T10:44:51;30.80;1.00
5779;DHT22;2916;49.798;10.022;2023-09-12T10:47:22;30.90;1.00
5779;DHT22;2916;49.798;10.022;2023-09-12T10:49:50;30.90;1.00
5779;DHT22;2916;49.798;10.022;2023-09-12T10:52:24;30.60;1.00
5779;DHT22;2916;49.798;10.022;2023-09-12T10:54:52;30.30;1.00
5779;DHT22;2916;49.798;10.022;2023-09-12T10:57:20;30.70;1.00
5779;DHT22;2916;49.798;10.022;2023-09-12T11:00:17;30.70;1.00
5779;DHT22;2916;49.798;10.022;2023-09-12T11:02:45;30.80;1.00
5779;DHT22;2916;49.798;10.022;2023-09-12T11:05:37;30.80;1.00
5779;DHT22;2916;49.798;10.022;2023-09-12T11:08:05;31.40;1.00
5779;DHT22;2916;49.798;10.022;2023-09-12T11:10:32;31.40;1.00
5779;DHT22;2916;49.798;10.022;2023-09-12T11:12:59;31.60;1.00
5779;DHT22;2916;49.798;10.022;2023-09-12T11:15:27;31.90;1.00
5779;DHT22;2916;49.798;10.022;2023-09-12T11:18:02;31.70;1.00
5779;DHT22;2916;49.798;10.022;2023-09-12T11:20:49;31.20;1.00
5779;DHT22;2916;49.798;10.022;2023-09-12T11:23:19;31.80;1.00
5779;DHT22;2916;49.798;10.022;2023-09-12T11:25:46;31.80;1.00
5779;DHT22;2916;49.798;10.022;2023-09-12T11:28:14;31.70;1.00
5779;DHT22;2916;49.798;10.022;2023-09-12T11:30:56;31.60;1.00
5779;DHT22;2916;49.798;10.022;2023-09-12T11:33:26;31.50;1.00
5779;DHT22;2916;49.798;10.022;2023-09-12T11:35:54;31.60;1.00
5779;DHT22;2916;49.798;10.022;2023-09-12T11:38:27;31.80;1.00
5779;DHT22;2916;49.798;10.022;2023-09-12T11:40:57;32.20;1.00
5779;DHT22;2916;49.798;10.022;2023-09-12T11:43:26;32.40;1.00
5779;DHT22;2916;49.798;10.022;2023-09-12T11:45:55;32.50;1.00
5779;DHT22;2916;49.798;10.022;2023-09-12T11:48:24;32.80;1.00
5779;DHT22;2916;49.798;10.022;2023-09-12T11:50:52;32.80;1.00
5779;DHT22;2916;49.798;10.022;2023-09-12T11:53:22;32.80;1.00
5779;DHT22;2916;49.798;10.022;2023-09-12T11:55:52;33.00;1.00
5779;DHT22;2916;49.798;10.022;2023-09-12T11:58:21;33.00;1.00
5779;DHT22;2916;49.798;10.022;2023-09-12T12:00:50;32.80;1.00
5779;DHT22;2916;49.798;10.022;2023-09-12T12:03:20;33.00;1.00
5779;DHT22;2916;49.798;10.022;2023-09-12T12:05:50;32.90;1.00
5779;DHT22;2916;49.798;10.022;2023-09-12T12:08:18;32.00;1.00
5779;DHT22;2916;49.798;10.022;2023-09-12T12:10:49;32.50;1.00
5779;DHT22;2916;49.798;10.022;2023-09-12T12:13:17;32.40;1.00
5779;DHT22;2916;49.798;10.022;2023-09-12T12:15:44;32.60;1.00
5779;DHT22;2916;49.798;10.022;2023-09-12T12:18:11;32.40;1.00
5779;DHT22;2916;49.798;10.022;2023-09-12T12:20:39;32.40;1.00
5779;DHT22;2916;49.798;10.022;2023-09-12T12:23:07;32.50;1.00
5779;DHT22;2916;49.798;10.022;2023-09-12T12:25:35;33.00;1.00
5779;DHT22;2916;49.798;10.022;2023-09-12T12:28:04;32.80;1.00
5779;DHT22;2916;49.798;10.022;2023-09-12T12:30:32;32.40;1.00
5779;DHT22;2916;49.798;10.022;2023-09-12T12:33:01;32.70;1.00
5779;DHT22;2916;49.798;10.022;2023-09-12T12:35:34;32.40;1.00
5779;DHT22;2916;49.798;10.022;2023-09-12T12:38:02;32.40;1.00
5779;DHT22;2916;49.798;10.022;2023-09-12T12:40:31;32.70;1.00
5779;DHT22;2916;49.798;10.022;2023-09-12T12:43:04;32.80;1.00
5779;DHT22;2916;49.798;10.022;2023-09-12T12:45:31;32.50;1.00
5779;DHT22;2916;49.798;10.022;2023-09-12T12:48:00;33.00;1.00
5779;DHT22;2916;49.798;10.022;2023-09-12T12:50:27;33.10;1.00
5779;DHT22;2916;49.798;10.022;2023-09-12T12:52:54;32.80;1.00
5779;DHT22;2916;49.798;10.022;2023-09-12T12:55:25;33.00;1.00
5779;DHT22;2916;49.798;10.022;2023-09-12T12:57:54;32.80;1.00
5779;DHT22;2916;49.798;10.022;2023-09-12T13:00:21;32.90;1.00
5779;DHT22;2916;49.798;10.022;2023-09-12T13:02:49;32.80;1.00
5779;DHT22;2916;49.798;10.022;2023-09-12T13:05:27;33.10;1.00
5779;DHT22;2916;49.798;10.022;2023-09-12T13:07:55;33.20;1.00
5779;DHT22;2916;49.798;10.022;2023-09-12T13:10:23;32.70;1.00
5779;DHT22;2916;49.798;10.022;2023-09-12T13:12:50;32.10;1.00
5779;DHT22;2916;49.798;10.022;2023-09-12T13:15:19;32.30;1.00
5779;DHT22;2916;49.798;10.022;2023-09-12T13:17:46;32.70;1.00
5779;DHT22;2916;49.798;10.022;2023-09-12T13:20:13;32.50;1.00
5779;DHT22;2916;49.798;10.022;2023-09-12T13:22:40;32.60;1.00
5779;DHT22;2916;49.798;10.022;2023-09-12T13:25:09;32.50;1.00
5779;DHT22;2916;49.798;10.022;2023-09-12T13:27:36;32.30;1.00
5779;DHT22;2916;49.798;10.022;2023-09-12T13:30:05;32.00;1.00
5779;DHT22;2916;49.798;10.022;2023-09-12T13:32:34;32.20;1.00
5779;DHT22;2916;49.798;10.022;2023-09-12T13:35:01;32.40;1.00
5779;DHT22;2916;49.798;10.022;2023-09-12T13:37:28;32.50;1.00
5779;DHT22;2916;49.798;10.022;2023-09-12T13:39:56;32.60;1.00
5779;DHT22;2916;49.798;10.022;2023-09-12T13:42:24;32.30;1.00
5779;DHT22;2916;49.798;10.022;2023-09-12T13:44:56;32.60;1.00
5779;DHT22;2916;49.798;10.022;2023-09-12T13:47:23;32.50;1.00
5779;DHT22;2916;49.798;10.022;2023-09-12T13:49:52;32.40;1.00
5779;DHT22;2916;49.798;10.022;2023-09-12T13:52:19;32.40;1.00
5779;DHT22;2916;49.798;10.022;2023-09-12T13:54:47;32.60;1.00
5779;DHT22;2916;49.798;10.022;2023-09-12T13:57:15;32.10;1.00
5779;DHT22;2916;49.798;10.022;2023-09-12T13:59:42;32.00;1.00
5779;DHT22;2916;49.798;10.022;2023-09-12T14:02:10;32.30;1.00
5779;DHT22;2916;49.798;10.022;2023-09-12T14:04:37;32.50;1.00
5779;DHT22;2916;49.798;10.022;2023-09-12T14:07:06;32.60;1.00
5779;DHT22;2916;49.798;10.022;2023-09-12T14:09:34;32.60;1.00
5779;DHT22;2916;49.798;10.022;2023-09-12T14:12:01;32.30;1.00
5779;DHT22;2916;49.798;10.022;2023-09-12T14:14:28;32.60;1.00
5779;DHT22;2916;49.798;10.022;2023-09-12T14:16:55;32.80;1.00
5779;DHT22;2916;49.798;10.022;2023-09-12T14:19:22;32.80;1.00
5779;DHT22;2916;49.798;10.022;2023-09-12T14:21:49;32.40;1.00
5779;DHT22;2916;49.798;10.022;2023-09-12T14:24:18;32.60;1.00
5779;DHT22;2916;49.798;10.022;2023-09-12T14:26:45;32.70;1.00
5779;DHT22;2916;49.798;10.022;2023-09-12T14:29:12;32.70;1.00
5779;DHT22;2916;49.798;10.022;2023-09-12T14:31:39;32.60;1.00
5779;DHT22;2916;49.798;10.022;2023-09-12T14:34:14;32.40;1.00
5779;DHT22;2916;49.798;10.022;2023-09-12T14:36:41;32.60;1.00
5779;DHT22;2916;49.798;10.022;2023-09-12T14:39:11;32.50;1.00
5779;DHT22;2916;49.798;10.022;2023-09-12T14:41:41;32.60;1.00
5779;DHT22;2916;49.798;10.022;2023-09-12T14:44:09;32.70;1.00
5779;DHT22;2916;49.798;10.022;2023-09-12T14:46:36;32.40;1.00
5779;DHT22;2916;49.798;10.022;2023-09-12T14:49:04;32.30;1.00
5779;DHT22;2916;49.798;10.022;2023-09-12T14:51:31;32.20;1.00
5779;DHT22;2916;49.798;10.022;2023-09-12T14:53:58;32.50;1.00
5779;DHT22;2916;49.798;10.022;2023-09-12T14:56:25;32.30;1.00
5779;DHT22;2916;49.798;10.022;2023-09-12T14:58:53;32.00;1.00
5779;DHT22;2916;49.798;10.022;2023-09-12T15:01:20;32.20;1.00
5779;DHT22;2916;49.798;10.022;2023-09-12T15:03:49;32.30;1.00
5779;DHT22;2916;49.798;10.022;2023-09-12T15:06:16;32.10;1.00
5779;DHT22;2916;49.798;10.022;2023-09-12T15:08:44;32.20;1.00
5779;DHT22;2916;49.798;10.022;2023-09-12T15:11:11;32.20;1.00
5779;DHT22;2916;49.798;10.022;2023-09-12T15:13:38;31.90;1.00
5779;DHT22;2916;49.798;10.022;2023-09-12T15:16:06;31.80;1.00
5779;DHT22;2916;49.798;10.022;2023-09-12T15:18:33;31.50;1.00
5779;DHT22;2916;49.798;10.022;2023-09-12T15:21:01;31.50;1.00
5779;DHT22;2916;49.798;10.022;2023-09-12T15:23:28;31.50;1.00
5779;DHT22;2916;49.798;10.022;2023-09-12T15:25:56;31.60;1.00
5779;DHT22;2916;49.798;10.022;2023-09-12T15:28:23;31.70;1.00
5779;DHT22;2916;49.798;10.022;2023-09-12T15:30:50;31.60;1.00
5779;DHT22;2916;49.798;10.022;2023-09-12T15:33:19;31.60;1.00
5779;DHT22;2916;49.798;10.022;2023-09-12T15:35:47;31.70;1.00
5779;DHT22;2916;49.798;10.022;2023-09-12T15:38:14;31.80;1.00
5779;DHT22;2916;49.798;10.022;2023-09-12T15:40:42;32.00;1.00
5779;DHT22;2916;49.798;10.022;2023-09-12T15:43:09;32.10;1.00
5779;DHT22;2916;49.798;10.022;2023-09-12T15:45:36;32.00;1.00
5779;DHT22;2916;49.798;10.022;2023-09-12T15:48:03;32.00;1.00
5779;DHT22;2916;49.798;10.022;2023-09-12T15:50:32;32.00;1.00
5779;DHT22;2916;49.798;10.022;2023-09-12T15:52:59;32.20;1.00
5779;DHT22;2916;49.798;10.022;2023-09-12T15:55:26;32.10;1.00
5779;DHT22;2916;49.798;10.022;2023-09-12T15:57:53;32.00;1.00
5779;DHT22;2916;49.798;10.022;2023-09-12T16:00:20;32.00;1.00
5779;DHT22;2916;49.798;10.022;2023-09-12T16:02:47;32.00;1.00
5779;DHT22;2916;49.798;10.022;2023-09-12T16:05:16;32.00;1.00